Time;durP1;ratioP1;P1;durP2;ratioP2;P2;SDS_P1;SDS_P2;PMS_P1;PMS_P2;Temp;Humidity;BMP_temperature;BMP_pressure;BME280_temperature;BME280_humidity;BME280_pressure;Samples;Min_cycle;Max_cycle;Signal;HPM_P1;HPM_P2
2023/04/14 00:00:32;;;;;;;4.25;2.00;;;4.70;90.60;;;;;;6172421;22;88059;-78
2023/04/14 00:02:58;;;;;;;12.05;2.55;;;4.70;91.30;;;;;;6145531;22;92275;-75
2023/04/14 00:05:28;;;;;;;6.35;2.05;;;4.60;91.10;;;;;;6170498;22;90270;-80
2023/04/14 00:07:53;;;;;;;9.07;2.28;;;4.60;91.20;;;;;;6146285;22;87814;-75
2023/04/14 00:10:19;;;;;;;8.27;2.10;;;4.60;91.30;;;;;;6171478;22;87666;-77
2023/04/14 00:12:44;;;;;;;8.98;2.38;;;4.60;91.40;;;;;;6147435;22;91299;-76
2023/04/14 00:15:10;;;;;;;7.38;2.03;;;4.60;91.30;;;;;;6146558;22;91138;-77
2023/04/14 00:17:36;;;;;;;7.00;2.17;;;4.60;91.40;;;;;;6167361;22;87674;-77
2023/04/14 00:20:03;;;;;;;5.45;1.55;;;4.60;90.90;;;;;;6175622;22;86840;-78
2023/04/14 00:22:29;;;;;;;5.88;2.10;;;4.50;91.30;;;;;;6173265;22;91180;-79
2023/04/14 00:24:54;;;;;;;7.05;2.00;;;4.40;91.20;;;;;;6176063;22;88247;-77
2023/04/14 00:27:20;;;;;;;5.78;2.42;;;4.40;91.20;;;;;;6174575;22;88611;-78
2023/04/14 00:29:46;;;;;;;6.22;2.45;;;4.30;91.10;;;;;;6172547;22;91049;-76
2023/04/14 00:32:12;;;;;;;8.70;2.17;;;4.20;91.30;;;;;;6174945;22;88278;-77
2023/04/14 00:34:37;;;;;;;5.18;2.20;;;4.10;91.20;;;;;;6173669;22;90900;-78
2023/04/14 00:37:03;;;;;;;6.97;2.13;;;4.00;91.20;;;;;;6176142;22;87057;-77
2023/04/14 00:39:29;;;;;;;11.80;3.13;;;4.00;91.50;;;;;;6175624;22;87830;-80
2023/04/14 00:41:55;;;;;;;8.25;1.98;;;3.90;91.30;;;;;;6174938;22;87554;-78
2023/04/14 00:44:21;;;;;;;8.07;2.30;;;3.80;91.10;;;;;;6175235;22;88447;-77
2023/04/14 00:46:47;;;;;;;11.38;1.95;;;3.80;91.00;;;;;;6174879;22;87945;-78
2023/04/14 00:49:15;;;;;;;6.93;2.20;;;3.70;91.20;;;;;;6173386;22;89098;-75
2023/04/14 00:51:42;;;;;;;9.55;2.83;;;3.70;91.10;;;;;;6175520;22;89236;-77
2023/04/14 00:54:09;;;;;;;6.97;2.22;;;3.60;91.50;;;;;;6175205;22;87874;-79
2023/04/14 00:56:35;;;;;;;5.85;2.53;;;3.60;91.60;;;;;;6173506;22;87533;-75
2023/04/14 00:59:02;;;;;;;6.05;2.08;;;3.50;91.80;;;;;;6174839;22;88059;-76
2023/04/14 01:01:28;;;;;;;7.95;2.05;;;3.50;91.50;;;;;;6173365;22;89814;-75
2023/04/14 01:03:55;;;;;;;11.02;2.75;;;3.40;91.90;;;;;;6175505;22;87908;-78
2023/04/14 01:06:20;;;;;;;4.68;1.42;;;3.40;91.90;;;;;;6197839;22;87898;-79
2023/04/14 01:08:48;;;;;;;10.20;2.50;;;3.30;91.80;;;;;;6178822;22;89751;-78
2023/04/14 01:11:30;;;;;;;5.18;1.95;;;3.20;92.00;;;;;;6177916;22;91198;-75
2023/04/14 01:14:32;;;;;;;4.18;2.22;;;3.20;92.00;;;;;;6205261;22;87735;-77
2023/04/14 01:17:11;;;;;;;5.55;2.00;;;3.20;92.10;;;;;;6177181;22;88306;-75
2023/04/14 01:19:49;;;;;;;5.90;1.90;;;3.10;91.90;;;;;;6178191;22;90642;-77
2023/04/14 01:22:20;;;;;;;12.18;2.92;;;3.10;92.10;;;;;;6205585;22;94401;-75
2023/04/14 01:25:07;;;;;;;8.27;2.90;;;3.00;92.30;;;;;;6205655;22;87969;-76
2023/04/14 01:27:44;;;;;;;6.75;2.10;;;3.00;92.60;;;;;;6203929;22;88534;-76
2023/04/14 01:30:23;;;;;;;10.65;2.60;;;3.00;92.80;;;;;;6177307;22;90366;-75
2023/04/14 01:32:52;;;;;;;7.07;2.10;;;2.90;92.60;;;;;;6203760;22;88211;-75
2023/04/14 01:35:22;;;;;;;8.55;2.40;;;2.90;92.50;;;;;;6204826;22;87680;-77
2023/04/14 01:37:53;;;;;;;5.22;2.03;;;2.90;92.70;;;;;;6205281;22;87639;-74
2023/04/14 01:40:21;;;;;;;10.65;2.50;;;2.90;92.40;;;;;;6203916;22;87396;-75
2023/04/14 01:42:55;;;;;;;7.63;2.38;;;2.80;92.80;;;;;;6178187;22;91268;-76
2023/04/14 01:45:31;;;;;;;7.93;2.70;;;2.90;92.70;;;;;;6177371;22;92383;-75
2023/04/14 01:47:58;;;;;;;9.82;2.25;;;2.80;92.90;;;;;;6204632;22;87598;-76
2023/04/14 01:50:25;;;;;;;9.93;2.38;;;2.80;92.90;;;;;;6177548;22;89512;-76
2023/04/14 01:52:53;;;;;;;4.63;2.28;;;2.80;93.10;;;;;;6177118;22;90915;-76
2023/04/14 01:55:21;;;;;;;6.68;2.65;;;2.70;92.90;;;;;;6204354;22;87763;-75
2023/04/14 01:57:50;;;;;;;9.73;2.30;;;2.70;93.10;;;;;;6206844;22;87254;-77
2023/04/14 02:00:20;;;;;;;10.05;3.83;;;2.70;92.70;;;;;;6179152;22;90706;-78
2023/04/14 02:02:48;;;;;;;5.90;2.10;;;2.70;93.00;;;;;;6179064;22;91419;-75
2023/04/14 02:05:16;;;;;;;9.23;2.58;;;2.60;92.80;;;;;;6204988;22;88075;-77
2023/04/14 02:07:42;;;;;;;5.07;2.65;;;2.60;93.00;;;;;;6205946;22;88191;-76
2023/04/14 02:10:09;;;;;;;5.38;2.50;;;2.50;93.30;;;;;;6206252;22;87888;-75
2023/04/14 02:12:40;;;;;;;12.02;2.45;;;2.50;93.30;;;;;;6179690;22;92208;-77
2023/04/14 02:15:11;;;;;;;9.35;2.88;;;2.40;93.30;;;;;;6171155;22;88471;-75
2023/04/14 02:17:37;;;;;;;6.50;2.25;;;2.40;93.40;;;;;;6171931;22;87354;-75
2023/04/14 02:20:05;;;;;;;6.47;2.70;;;2.40;93.10;;;;;;6171695;22;87854;-75
2023/04/14 02:22:31;;;;;;;9.05;1.98;;;2.40;93.20;;;;;;6172121;22;88400;-75
2023/04/14 02:24:56;;;;;;;7.55;2.10;;;2.30;93.10;;;;;;6147822;22;91278;-75
2023/04/14 02:27:37;;;;;;;8.50;2.35;;;2.30;93.00;;;;;;6146652;22;87787;-75
2023/04/14 02:30:11;;;;;;;11.48;2.78;;;2.30;93.00;;;;;;6171146;22;88163;-75
2023/04/14 02:32:40;;;;;;;8.07;2.72;;;2.30;93.00;;;;;;6171626;22;88589;-75
2023/04/14 02:35:12;;;;;;;12.75;2.67;;;2.30;93.10;;;;;;6146474;22;90336;-75
2023/04/14 02:37:41;;;;;;;8.07;2.28;;;2.30;93.30;;;;;;6146355;22;87445;-75
2023/04/14 02:40:12;;;;;;;7.63;2.53;;;2.20;93.00;;;;;;6146069;22;89494;-76
2023/04/14 02:42:43;;;;;;;8.82;2.40;;;2.20;93.40;;;;;;6173220;22;87722;-78
2023/04/14 02:45:13;;;;;;;8.27;2.67;;;2.20;93.50;;;;;;6171442;22;87660;-75
2023/04/14 02:47:45;;;;;;;7.95;3.13;;;2.20;93.50;;;;;;6171126;22;88071;-74
2023/04/14 02:50:13;;;;;;;14.75;2.88;;;2.20;93.60;;;;;;6146943;22;90965;-76
2023/04/14 02:52:41;;;;;;;10.52;2.47;;;2.10;93.30;;;;;;6162405;22;90803;-74
2023/04/14 02:55:09;;;;;;;5.85;2.47;;;2.10;93.70;;;;;;6205527;22;87481;-74
2023/04/14 02:57:36;;;;;;;6.13;2.22;;;2.10;93.70;;;;;;6178898;22;88495;-75
2023/04/14 03:00:02;;;;;;;6.45;2.50;;;2.00;93.50;;;;;;6206073;22;87259;-75
2023/04/14 03:02:29;;;;;;;6.85;2.30;;;2.00;93.50;;;;;;6205338;22;87759;-75
2023/04/14 03:04:55;;;;;;;10.20;3.38;;;2.00;93.60;;;;;;6204603;22;87727;-74
2023/04/14 03:07:22;;;;;;;10.25;2.53;;;2.00;93.60;;;;;;6178712;22;87755;-75
2023/04/14 03:09:52;;;;;;;7.85;3.05;;;2.00;93.60;;;;;;6206696;22;87521;-75
2023/04/14 03:12:19;;;;;;;9.05;2.83;;;2.00;93.80;;;;;;6204648;22;88329;-78
2023/04/14 03:14:45;;;;;;;6.65;2.90;;;1.90;94.00;;;;;;6205599;22;86765;-75
2023/04/14 03:17:13;;;;;;;9.27;3.40;;;1.90;94.50;;;;;;6205231;22;87048;-77
2023/04/14 03:19:41;;;;;;;6.80;2.88;;;2.00;94.90;;;;;;6178468;22;90861;-75
2023/04/14 03:22:11;;;;;;;8.13;2.97;;;2.00;94.90;;;;;;6204739;22;88619;-75
2023/04/14 03:24:38;;;;;;;10.52;3.17;;;2.00;94.60;;;;;;6206658;22;88395;-76
2023/04/14 03:27:11;;;;;;;8.52;3.00;;;2.00;94.70;;;;;;6204639;22;87555;-76
2023/04/14 03:29:42;;;;;;;8.40;3.05;;;2.00;94.60;;;;;;6205184;22;87554;-76
2023/04/14 03:32:08;;;;;;;11.13;2.95;;;2.00;94.40;;;;;;6205904;22;88569;-77
2023/04/14 03:34:39;;;;;;;11.15;3.28;;;2.00;94.40;;;;;;6177697;22;90761;-75
2023/04/14 03:37:07;;;;;;;8.32;3.17;;;2.00;94.50;;;;;;6206463;22;87595;-75
2023/04/14 03:39:37;;;;;;;9.18;2.80;;;1.90;94.40;;;;;;6178884;22;95037;-75
2023/04/14 03:42:04;;;;;;;11.68;3.30;;;1.90;94.20;;;;;;6139654;22;90025;-75
2023/04/14 03:44:34;;;;;;;12.63;4.57;;;1.90;94.20;;;;;;6115985;22;91589;-74
2023/04/14 03:47:02;;;;;;;6.70;2.60;;;1.80;94.40;;;;;;6114882;22;88870;-74
2023/04/14 03:49:31;;;;;;;10.85;2.92;;;1.80;94.30;;;;;;6140774;22;87576;-76
2023/04/14 03:52:01;;;;;;;5.35;2.58;;;1.80;94.30;;;;;;6081080;23;89967;-74
2023/04/14 03:54:29;;;;;;;10.05;3.00;;;1.80;94.10;;;;;;6081003;23;88513;-75
2023/04/14 03:56:57;;;;;;;14.18;3.13;;;1.80;93.80;;;;;;6081314;23;88211;-75
2023/04/14 03:59:25;;;;;;;6.80;3.53;;;1.80;94.00;;;;;;6081413;23;87767;-74
2023/04/14 04:01:52;;;;;;;7.53;2.67;;;1.80;94.00;;;;;;6080482;23;95226;-74
2023/04/14 04:04:19;;;;;;;11.05;2.97;;;1.70;93.80;;;;;;6080968;23;87605;-75
2023/04/14 04:06:45;;;;;;;10.02;2.80;;;1.70;93.80;;;;;;6082519;23;87624;-75
2023/04/14 04:09:16;;;;;;;10.82;3.75;;;1.70;94.20;;;;;;6081131;23;87538;-74
2023/04/14 04:11:45;;;;;;;10.88;3.55;;;1.70;95.00;;;;;;6050297;23;90619;-75
2023/04/14 04:14:12;;;;;;;7.40;3.40;;;1.70;95.00;;;;;;6077268;23;91639;-77
2023/04/14 04:16:41;;;;;;;8.88;2.85;;;1.70;94.90;;;;;;6080719;23;87769;-77
2023/04/14 04:19:09;;;;;;;7.88;3.33;;;1.70;94.80;;;;;;6081526;23;87315;-75
2023/04/14 04:21:40;;;;;;;13.68;3.35;;;1.70;94.70;;;;;;6081614;23;88167;-76
2023/04/14 04:24:08;;;;;;;8.35;3.13;;;1.70;94.60;;;;;;6137353;22;87950;-74
2023/04/14 04:26:34;;;;;;;8.65;2.97;;;1.70;94.30;;;;;;6140748;22;87726;-75
2023/04/14 04:29:02;;;;;;;10.35;3.05;;;1.70;94.00;;;;;;6116143;22;90340;-75
2023/04/14 04:31:29;;;;;;;11.68;3.00;;;1.60;94.00;;;;;;6139947;22;87768;-75
2023/04/14 04:33:57;;;;;;;11.70;3.80;;;1.60;94.30;;;;;;6141404;22;89486;-76
2023/04/14 04:36:26;;;;;;;9.32;3.83;;;1.60;94.20;;;;;;6140166;22;88809;-75
2023/04/14 04:38:52;;;;;;;8.30;2.70;;;1.60;94.40;;;;;;6141240;22;90050;-74
2023/04/14 04:41:25;;;;;;;7.55;2.90;;;1.50;94.00;;;;;;6140418;22;88589;-75
2023/04/14 04:43:51;;;;;;;9.80;2.72;;;1.50;94.10;;;;;;6140262;22;88057;-76
2023/04/14 04:46:19;;;;;;;10.63;3.83;;;1.60;94.10;;;;;;6115497;22;88056;-75
2023/04/14 04:48:49;;;;;;;8.55;3.53;;;1.60;94.20;;;;;;6116318;22;89436;-76
2023/04/14 04:51:16;;;;;;;10.25;3.20;;;1.60;94.40;;;;;;6160380;22;89296;-76
2023/04/14 04:53:42;;;;;;;7.82;3.70;;;1.60;94.80;;;;;;6204179;22;88443;-78
2023/04/14 04:56:08;;;;;;;10.48;4.00;;;1.60;94.00;;;;;;6205416;22;87626;-74
2023/04/14 04:58:33;;;;;;;9.32;3.45;;;1.60;94.40;;;;;;6204679;22;87739;-76
2023/04/14 05:01:05;;;;;;;9.88;3.75;;;1.60;94.30;;;;;;6205136;22;88666;-74
2023/04/14 05:03:31;;;;;;;7.22;2.95;;;1.70;94.60;;;;;;6204094;22;94091;-74
2023/04/14 05:05:58;;;;;;;10.95;3.63;;;1.70;94.40;;;;;;6204704;22;87356;-74
2023/04/14 05:08:23;;;;;;;6.65;2.65;;;1.70;94.60;;;;;;6204538;22;87433;-74
2023/04/14 05:10:49;;;;;;;12.27;3.15;;;1.80;94.30;;;;;;6176717;22;91493;-74
2023/04/14 05:13:15;;;;;;;8.77;3.67;;;1.90;94.70;;;;;;6203979;22;87638;-75
2023/04/14 05:15:41;;;;;;;14.05;3.38;;;1.90;94.80;;;;;;6205356;22;87258;-74
2023/04/14 05:18:06;;;;;;;11.75;3.22;;;2.00;94.80;;;;;;6177818;22;90434;-76
2023/04/14 05:20:32;;;;;;;11.13;3.47;;;2.00;94.70;;;;;;6204238;22;88172;-76
2023/04/14 05:22:58;;;;;;;11.43;3.92;;;2.00;95.00;;;;;;6204945;22;88628;-75
2023/04/14 05:25:23;;;;;;;13.23;4.57;;;2.10;95.00;;;;;;6177301;22;88592;-74
2023/04/14 05:27:49;;;;;;;11.48;3.78;;;2.20;95.20;;;;;;6205936;22;87337;-75
2023/04/14 05:30:15;;;;;;;15.73;4.15;;;2.40;95.20;;;;;;6204745;22;89758;-76
2023/04/14 05:32:41;;;;;;;11.55;4.10;;;2.50;95.10;;;;;;6177951;22;90251;-76
2023/04/14 05:35:07;;;;;;;15.75;4.43;;;2.70;95.20;;;;;;6205746;22;90536;-76
2023/04/14 05:37:32;;;;;;;11.18;4.18;;;2.80;95.30;;;;;;6178427;22;91238;-76
2023/04/14 05:39:58;;;;;;;17.10;4.90;;;2.90;95.10;;;;;;6179726;22;90589;-76
2023/04/14 05:42:24;;;;;;;10.98;3.83;;;3.10;95.20;;;;;;6179716;22;91356;-75
2023/04/14 05:44:49;;;;;;;15.35;5.30;;;3.20;95.20;;;;;;6205828;22;87473;-77
2023/04/14 05:47:15;;;;;;;13.07;4.18;;;3.40;95.30;;;;;;6205716;22;87661;-76
2023/04/14 05:49:41;;;;;;;9.27;3.85;;;3.50;95.20;;;;;;6178046;22;92534;-78
2023/04/14 05:52:06;;;;;;;13.00;4.15;;;3.60;95.20;;;;;;6179608;22;93265;-76
2023/04/14 05:54:32;;;;;;;17.13;4.13;;;3.80;95.30;;;;;;6178673;22;87942;-75
2023/04/14 05:56:57;;;;;;;9.45;3.50;;;3.90;95.10;;;;;;6179074;22;90350;-79
2023/04/14 05:59:23;;;;;;;17.88;4.35;;;4.00;95.00;;;;;;6205812;22;88238;-78
2023/04/14 06:01:49;;;;;;;14.75;4.70;;;4.10;95.10;;;;;;6178510;22;91198;-75
2023/04/14 06:04:14;;;;;;;13.93;3.97;;;4.20;95.10;;;;;;6179011;22;87594;-75
2023/04/14 06:06:40;;;;;;;11.30;4.10;;;4.30;95.00;;;;;;6207089;22;87023;-75
2023/04/14 06:09:06;;;;;;;19.77;4.43;;;4.40;94.80;;;;;;6178728;22;92230;-74
2023/04/14 06:11:31;;;;;;;9.20;4.60;;;4.40;94.70;;;;;;6178899;22;90300;-75
2023/04/14 06:13:57;;;;;;;16.73;4.68;;;4.60;94.70;;;;;;6204604;22;88499;-75
2023/04/14 06:16:23;;;;;;;9.40;3.78;;;4.60;94.40;;;;;;6204840;22;87701;-76
2023/04/14 06:18:49;;;;;;;13.07;4.70;;;4.70;94.10;;;;;;6180158;22;91339;-76
2023/04/14 06:21:14;;;;;;;11.35;4.85;;;4.80;93.80;;;;;;6205990;22;87482;-76
2023/04/14 06:23:40;;;;;;;15.25;3.67;;;4.90;93.70;;;;;;6178897;22;87388;-75
2023/04/14 06:26:06;;;;;;;10.02;4.22;;;5.10;93.60;;;;;;6178490;22;90729;-76
2023/04/14 06:28:31;;;;;;;11.63;3.78;;;5.20;93.70;;;;;;6205741;22;88727;-78
2023/04/14 06:30:57;;;;;;;15.07;3.60;;;5.40;93.70;;;;;;6207149;22;88071;-79
2023/04/14 06:33:22;;;;;;;10.77;3.72;;;5.50;93.50;;;;;;6179443;22;87299;-79
2023/04/14 06:35:48;;;;;;;12.68;3.70;;;5.70;93.20;;;;;;6205801;22;87616;-70
2023/04/14 06:38:14;;;;;;;15.48;3.47;;;5.80;93.40;;;;;;6178349;22;91062;-77
2023/04/14 06:40:39;;;;;;;10.10;3.42;;;6.00;93.40;;;;;;6177759;22;90781;-75
2023/04/14 06:43:09;;;;;;;14.23;3.53;;;6.20;93.60;;;;;;6179514;22;87562;-75
2023/04/14 06:45:35;;;;;;;12.65;3.28;;;6.40;93.70;;;;;;6205726;22;91032;-75
2023/04/14 06:48:01;;;;;;;11.55;3.00;;;6.70;93.60;;;;;;6206758;22;88492;-76
2023/04/14 06:50:26;;;;;;;11.23;3.50;;;6.80;93.20;;;;;;6178572;22;91266;-75
2023/04/14 06:52:52;;;;;;;12.57;3.15;;;7.00;93.00;;;;;;6179655;22;87903;-70
2023/04/14 06:55:18;;;;;;;6.75;3.00;;;7.20;92.50;;;;;;6206950;22;88439;-72
2023/04/14 06:57:43;;;;;;;14.90;3.80;;;7.40;91.00;;;;;;6207892;22;87712;-72
2023/04/14 07:00:10;;;;;;;15.95;3.42;;;7.50;90.70;;;;;;6207480;22;87560;-73
2023/04/14 07:02:36;;;;;;;12.00;2.90;;;7.60;91.20;;;;;;6215640;22;88369;-75
2023/04/14 07:05:01;;;;;;;9.07;2.78;;;7.80;90.90;;;;;;6185534;22;90436;-73
2023/04/14 07:07:29;;;;;;;12.98;2.90;;;7.90;89.60;;;;;;6183567;22;91418;-81
2023/04/14 07:09:58;;;;;;;9.80;2.63;;;8.00;90.10;;;;;;6189924;22;87855;-77
2023/04/14 07:12:24;;;;;;;10.15;3.17;;;8.20;88.00;;;;;;6168271;22;87341;-79
2023/04/14 07:14:50;;;;;;;9.80;2.70;;;8.30;90.20;;;;;;6173891;22;90317;-78
2023/04/14 07:17:20;;;;;;;8.05;2.53;;;8.50;88.20;;;;;;6175421;22;91590;-78
2023/04/14 07:19:46;;;;;;;7.22;2.58;;;8.60;87.00;;;;;;6180488;22;91542;-77
2023/04/14 07:22:11;;;;;;;11.32;3.28;;;8.70;87.20;;;;;;6179302;22;87432;-80
2023/04/14 07:24:38;;;;;;;9.48;2.80;;;8.80;87.30;;;;;;6145810;22;89291;-82
2023/04/14 07:27:06;;;;;;;8.15;2.53;;;8.90;84.80;;;;;;6127321;22;92275;-78
2023/04/14 07:29:34;;;;;;;7.72;2.05;;;8.90;86.10;;;;;;6128304;22;91746;-77
2023/04/14 07:32:00;;;;;;;7.53;2.47;;;9.00;86.00;;;;;;6119722;22;87033;-77
2023/04/14 07:34:26;;;;;;;10.50;2.33;;;9.10;85.30;;;;;;6128237;22;90249;-79
2023/04/14 07:36:52;;;;;;;6.15;2.30;;;9.10;85.80;;;;;;6126579;22;90714;-78
2023/04/14 07:39:17;;;;;;;6.85;2.67;;;9.20;86.10;;;;;;6113522;23;90565;-70
2023/04/14 07:41:43;;;;;;;9.00;2.80;;;9.30;85.70;;;;;;6113201;23;88003;-75
2023/04/14 07:44:09;;;;;;;12.02;2.88;;;9.40;85.10;;;;;;6112815;23;87541;-76
2023/04/14 07:46:36;;;;;;;8.48;3.05;;;9.50;84.50;;;;;;6111084;23;89174;-76
2023/04/14 07:49:02;;;;;;;9.73;2.33;;;9.70;85.00;;;;;;6113496;23;91280;-76
2023/04/14 07:51:28;;;;;;;8.73;2.72;;;9.80;85.50;;;;;;6116975;23;88565;-76
2023/04/14 07:53:54;;;;;;;4.97;1.92;;;10.00;83.60;;;;;;6116296;23;90178;-76
2023/04/14 07:56:21;;;;;;;8.43;2.47;;;10.00;82.90;;;;;;6134612;22;88236;-75
2023/04/14 07:58:46;;;;;;;8.70;2.25;;;10.20;80.20;;;;;;6140948;22;88943;-76
2023/04/14 08:01:13;;;;;;;6.82;2.03;;;10.30;78.00;;;;;;6116123;22;87581;-76
2023/04/14 08:03:38;;;;;;;8.20;2.30;;;10.40;78.90;;;;;;6108758;22;89943;-76
2023/04/14 08:06:05;;;;;;;12.25;2.10;;;10.50;76.70;;;;;;6139901;22;88727;-76
2023/04/14 08:08:32;;;;;;;7.63;2.33;;;10.60;77.10;;;;;;6117168;22;91201;-76
2023/04/14 08:10:57;;;;;;;9.55;2.15;;;10.70;75.20;;;;;;6157638;22;87686;-76
2023/04/14 08:13:23;;;;;;;10.65;2.10;;;10.80;76.80;;;;;;6175167;22;87716;-75
2023/04/14 08:15:49;;;;;;;10.57;2.35;;;10.90;75.60;;;;;;6173856;22;88791;-76
2023/04/14 08:18:15;;;;;;;6.75;1.88;;;11.00;76.10;;;;;;6173806;22;88149;-76
2023/04/14 08:20:40;;;;;;;9.25;2.35;;;11.20;77.60;;;;;;6176631;22;87722;-76
2023/04/14 08:23:06;;;;;;;8.45;1.75;;;11.30;72.60;;;;;;6175678;22;87974;-76
2023/04/14 08:25:32;;;;;;;9.95;2.35;;;11.30;73.30;;;;;;6175446;22;88029;-76
2023/04/14 08:27:57;;;;;;;12.40;2.45;;;11.30;74.10;;;;;;6172732;22;90387;-76
2023/04/14 08:30:23;;;;;;;7.10;2.17;;;11.40;73.60;;;;;;6173449;22;87185;-76
2023/04/14 08:32:49;;;;;;;8.02;2.13;;;11.50;71.60;;;;;;6173568;22;89864;-75
2023/04/14 08:35:15;;;;;;;9.73;2.30;;;11.60;74.30;;;;;;6173743;22;90008;-76
2023/04/14 08:37:40;;;;;;;10.63;2.55;;;11.80;72.60;;;;;;6173157;22;91188;-76
2023/04/14 08:40:09;;;;;;;8.23;2.20;;;11.90;71.60;;;;;;6174169;22;88624;-76
2023/04/14 08:42:35;;;;;;;7.28;1.98;;;12.10;70.30;;;;;;6173979;22;88794;-76
2023/04/14 08:45:00;;;;;;;6.05;2.10;;;12.20;68.10;;;;;;6174416;22;88784;-76
2023/04/14 08:47:30;;;;;;;11.73;2.17;;;12.50;71.60;;;;;;6174886;22;88519;-76
2023/04/14 08:50:06;;;;;;;6.22;2.00;;;12.80;67.30;;;;;;6174298;22;87369;-76
2023/04/14 08:52:35;;;;;;;4.88;1.60;;;13.00;66.90;;;;;;6172104;22;90471;-76
2023/04/14 08:55:03;;;;;;;9.63;2.22;;;13.20;65.80;;;;;;6173535;22;88027;-76
2023/04/14 08:57:30;;;;;;;9.48;1.85;;;13.30;64.90;;;;;;6172218;22;91023;-75
2023/04/14 08:59:56;;;;;;;14.32;2.67;;;13.60;65.70;;;;;;6172875;22;87585;-75
2023/04/14 09:02:23;;;;;;;4.60;1.63;;;13.80;62.40;;;;;;6174071;22;86952;-76
2023/04/14 09:04:49;;;;;;;11.85;2.35;;;13.90;62.50;;;;;;6173712;22;92568;-75
2023/04/14 09:07:15;;;;;;;11.32;2.13;;;14.20;64.40;;;;;;6176530;22;92155;-76
2023/04/14 09:09:44;;;;;;;8.20;1.63;;;14.50;64.50;;;;;;6203488;22;87859;-76
2023/04/14 09:12:12;;;;;;;6.18;1.75;;;14.80;63.60;;;;;;6177967;22;89691;-75
2023/04/14 09:14:38;;;;;;;4.43;2.03;;;14.70;59.30;;;;;;6177530;22;89831;-74
2023/04/14 09:17:05;;;;;;;8.07;1.90;;;14.40;59.10;;;;;;6208117;22;87711;-74
2023/04/14 09:19:32;;;;;;;9.27;2.15;;;14.30;61.10;;;;;;6176688;22;87747;-71
2023/04/14 09:21:58;;;;;;;4.95;1.50;;;14.20;61.00;;;;;;6177434;22;90569;-75
2023/04/14 09:24:32;;;;;;;7.18;1.77;;;14.30;60.90;;;;;;6176893;22;91061;-76
2023/04/14 09:27:02;;;;;;;10.30;2.75;;;14.60;61.50;;;;;;6177264;22;89514;-76
2023/04/14 09:29:28;;;;;;;5.97;1.77;;;14.70;58.70;;;;;;6178300;22;88890;-72
2023/04/14 09:31:53;;;;;;;7.15;1.52;;;14.70;57.40;;;;;;6176406;22;90068;-74
2023/04/14 09:34:20;;;;;;;4.90;1.33;;;14.90;59.00;;;;;;6181860;22;91721;-74
2023/04/14 09:37:04;;;;;;;6.07;1.13;;;15.30;57.30;;;;;;6178788;22;90397;-74
2023/04/14 09:39:30;;;;;;;;;;;15.40;55.00;;;;;;6179725;22;87155;-74
2023/04/14 09:41:57;;;;;;;10.70;1.13;;;15.40;58.80;;;;;;6205468;22;87577;-75
2023/04/14 09:44:22;;;;;;;9.27;1.20;;;15.50;53.80;;;;;;6205099;22;88711;-74
2023/04/14 09:46:56;;;;;;;4.38;1.13;;;15.60;57.10;;;;;;6178110;22;91445;-75
2023/04/14 09:49:22;;;;;;;5.40;1.08;;;15.80;55.50;;;;;;6170679;22;87747;-75
2023/04/14 09:51:48;;;;;;;6.43;1.02;;;15.70;53.90;;;;;;6155400;22;87843;-75
2023/04/14 09:54:27;;;;;;;6.47;1.98;;;15.50;55.00;;;;;;6143472;22;91131;-75
2023/04/14 09:56:53;;;;;;;5.85;1.00;;;15.50;58.90;;;;;;6144363;22;92859;-74
2023/04/14 09:59:35;;;;;;;8.32;1.95;;;15.70;56.30;;;;;;6146590;22;87666;-77
2023/04/14 10:02:07;;;;;;;3.78;1.10;;;15.70;55.50;;;;;;6143476;22;90536;-75
2023/04/14 10:04:33;;;;;;;6.22;1.23;;;15.70;54.30;;;;;;6143391;22;91575;-76
2023/04/14 10:07:00;;;;;;;8.70;1.60;;;15.80;56.90;;;;;;6143700;22;91383;-75
2023/04/14 10:09:27;;;;;;;6.53;1.33;;;15.90;51.70;;;;;;6170674;22;87847;-75
2023/04/14 10:12:12;;;;;;;6.47;1.45;;;16.10;55.20;;;;;;6145632;22;90797;-76
2023/04/14 10:14:39;;;;;;;5.82;1.20;;;16.40;53.90;;;;;;6112835;23;91375;-76
2023/04/14 10:17:09;;;;;;;5.30;1.10;;;16.50;53.50;;;;;;6084478;23;91484;-75
2023/04/14 10:19:36;;;;;;;4.53;1.40;;;16.70;54.40;;;;;;6086430;23;88463;-75
2023/04/14 10:22:03;;;;;;;6.70;1.45;;;16.80;51.10;;;;;;6089221;23;88070;-76
2023/04/14 10:24:29;;;;;;;8.73;1.30;;;16.50;53.10;;;;;;6086525;23;91196;-75
2023/04/14 10:26:55;;;;;;;8.10;1.10;;;16.40;52.90;;;;;;6088738;23;91502;-77
2023/04/14 10:29:21;;;;;;;6.45;1.48;;;16.60;51.30;;;;;;6087100;23;87752;-76
2023/04/14 10:31:55;;;;;;;7.50;1.42;;;16.80;51.00;;;;;;6112971;23;88029;-76
2023/04/14 10:34:23;;;;;;;7.05;1.50;;;17.00;52.00;;;;;;6088908;23;90763;-74
2023/04/14 10:36:49;;;;;;;7.97;1.23;;;17.00;50.60;;;;;;6092331;23;91274;-75
2023/04/14 10:39:23;;;;;;;5.63;1.10;;;16.70;52.70;;;;;;6090692;23;87594;-75
2023/04/14 10:41:52;;;;;;;3.92;1.00;;;16.30;52.60;;;;;;6114203;23;87751;-78
2023/04/14 10:44:30;;;;;;;5.05;1.58;;;16.10;51.50;;;;;;6111586;23;89208;-75
2023/04/14 10:46:58;;;;;;;3.30;1.00;;;16.00;51.10;;;;;;6141754;22;88804;-75
2023/04/14 10:49:37;;;;;;;6.25;0.90;;;16.20;52.30;;;;;;6205615;22;87562;-75
2023/04/14 10:52:24;;;;;;;4.75;1.00;;;16.60;53.10;;;;;;6208320;22;87412;-77
2023/04/14 10:55:06;;;;;;;6.63;1.10;;;16.90;48.90;;;;;;6183021;22;91197;-76
2023/04/14 10:57:42;;;;;;;6.32;1.15;;;16.90;48.50;;;;;;6180007;22;91512;-77
2023/04/14 11:00:20;;;;;;;4.30;1.25;;;16.70;49.20;;;;;;6209048;22;87080;-75
2023/04/14 11:03:17;;;;;;;5.45;0.95;;;16.70;48.90;;;;;;6210547;22;87273;-76
2023/04/14 11:05:51;;;;;;;19.30;1.42;;;17.00;51.30;;;;;;6063357;23;91268;-76
2023/04/14 11:08:37;;;;;;;6.25;1.27;;;16.90;50.40;;;;;;6066879;23;91497;-76
2023/04/14 11:11:05;;;;;;;19.10;3.15;;;17.00;49.10;;;;;;6061196;23;88487;-76
2023/04/14 11:13:32;;;;;;;6.03;1.00;;;16.70;48.30;;;;;;6056293;23;90469;-76
2023/04/14 11:16:07;;;;;;;11.82;1.70;;;16.40;50.10;;;;;;6054874;23;90002;-77
2023/04/14 11:18:41;;;;;;;12.35;1.83;;;16.40;50.00;;;;;;6059287;23;91287;-76
2023/04/14 11:21:13;;;;;;;5.70;1.30;;;16.20;52.70;;;;;;6052009;23;87791;-79
2023/04/14 11:23:40;;;;;;;3.67;0.80;;;16.20;51.00;;;;;;6061069;23;90265;-75
2023/04/14 11:26:10;;;;;;;3.78;0.98;;;16.30;49.20;;;;;;6064923;23;91469;-74
2023/04/14 11:28:38;;;;;;;5.32;0.60;;;16.50;47.30;;;;;;6064076;23;91141;-76
2023/04/14 11:31:07;;;;;;;6.93;1.10;;;16.60;47.30;;;;;;6038419;23;87095;-73
2023/04/14 11:33:37;;;;;;;4.00;0.98;;;16.60;46.90;;;;;;6054599;23;90688;-78
2023/04/14 11:36:05;;;;;;;5.32;1.48;;;17.00;49.50;;;;;;6054323;23;89496;-76
2023/04/14 11:38:31;;;;;;;4.07;1.00;;;17.50;50.10;;;;;;6055245;23;92477;-76
2023/04/14 11:40:57;;;;;;;4.32;0.60;;;17.90;50.20;;;;;;6088538;22;94802;-79
2023/04/14 11:43:23;;;;;;;3.05;0.90;;;18.10;48.60;;;;;;6139344;22;89636;-75
2023/04/14 11:45:51;;;;;;;6.45;1.00;;;18.10;47.70;;;;;;6141736;22;91779;-76
2023/04/14 11:48:19;;;;;;;8.00;0.90;;;18.10;50.10;;;;;;6140602;22;91532;-77
2023/04/14 11:50:46;;;;;;;5.78;1.10;;;17.70;47.30;;;;;;6142722;22;87739;-77
2023/04/14 11:53:14;;;;;;;7.45;1.20;;;17.20;47.40;;;;;;6121933;22;91314;-77
2023/04/14 11:55:45;;;;;;;4.82;0.68;;;17.10;48.10;;;;;;6147162;22;88236;-80
2023/04/14 11:58:12;;;;;;;6.85;0.90;;;16.50;46.60;;;;;;6147696;22;92393;-76
2023/04/14 12:00:39;;;;;;;5.35;0.90;;;16.40;47.80;;;;;;6123623;22;89040;-76
2023/04/14 12:03:06;;;;;;;3.85;0.82;;;16.40;49.90;;;;;;6125205;22;90596;-81
2023/04/14 12:05:33;;;;;;;4.38;0.82;;;16.60;47.20;;;;;;6148970;22;88464;-77
2023/04/14 12:08:00;;;;;;;6.05;1.00;;;16.90;48.80;;;;;;6124319;22;89939;-75
2023/04/14 12:10:27;;;;;;;3.03;0.70;;;17.10;47.40;;;;;;6125933;22;87311;-77
2023/04/14 12:13:01;;;;;;;5.85;1.05;;;17.20;48.60;;;;;;6123639;22;88602;-77
2023/04/14 12:15:40;;;;;;;4.68;1.20;;;17.70;48.80;;;;;;6146351;22;87600;-78
2023/04/14 12:18:12;;;;;;;3.33;0.80;;;18.30;51.00;;;;;;6121242;22;90789;-78
2023/04/14 12:20:51;;;;;;;5.82;1.00;;;18.70;46.80;;;;;;6170535;22;87619;-75
2023/04/14 12:23:17;;;;;;;5.05;1.27;;;18.20;45.60;;;;;;6183113;22;94698;-79
2023/04/14 12:25:42;;;;;;;5.63;1.15;;;17.90;46.10;;;;;;6177190;22;93446;-80
2023/04/14 12:28:08;;;;;;;4.00;0.70;;;17.50;48.20;;;;;;6182318;22;92199;-76
2023/04/14 12:30:36;;;;;;;9.45;0.80;;;17.50;47.30;;;;;;6182760;22;87597;-79
2023/04/14 12:33:10;;;;;;;4.22;0.80;;;17.30;47.20;;;;;;6138075;22;88708;-77
2023/04/14 12:35:37;;;;;;;4.55;1.15;;;16.60;49.20;;;;;;6207477;22;88523;-78
2023/04/14 12:38:13;;;;;;;3.92;0.90;;;16.20;49.90;;;;;;6181697;22;91038;-78
2023/04/14 12:40:44;;;;;;;3.30;0.80;;;16.20;48.70;;;;;;6181778;22;87734;-76
2023/04/14 12:43:11;;;;;;;7.03;1.40;;;16.30;51.20;;;;;;6175487;22;88267;-77
2023/04/14 12:45:47;;;;;;;9.60;1.20;;;16.70;50.20;;;;;;6181898;22;92087;-76
2023/04/14 12:48:16;;;;;;;3.63;1.10;;;16.80;48.90;;;;;;6181006;22;94285;-78
2023/04/14 12:50:43;;;;;;;4.45;1.05;;;16.80;50.60;;;;;;6142890;22;88392;-76
2023/04/14 12:53:26;;;;;;;5.32;1.40;;;16.80;50.50;;;;;;6143115;22;87391;-79
2023/04/14 12:56:09;;;;;;;4.43;1.20;;;16.90;50.60;;;;;;6144798;22;87610;-79